sensor_id;sensor_type;location;lat;lon;timestamp;P1;durP1;ratioP1;P2;durP2;ratioP2
36725;SDS011;44936;52.086;5.150;2023-05-08T00:00:28;4.55;;;2.35;;
36725;SDS011;44936;52.086;5.150;2023-05-08T00:02:54;3.80;;;1.95;;
36725;SDS011;44936;52.086;5.150;2023-05-08T00:05:19;4.65;;;2.00;;
36725;SDS011;44936;52.086;5.150;2023-05-08T00:07:44;3.15;;;1.80;;
36725;SDS011;44936;52.086;5.150;2023-05-08T00:10:15;4.28;;;2.00;;
36725;SDS011;44936;52.086;5.150;2023-05-08T00:12:40;3.13;;;1.92;;
36725;SDS011;44936;52.086;5.150;2023-05-08T00:15:06;4.15;;;2.30;;
36725;SDS011;44936;52.086;5.150;2023-05-08T00:17:32;4.07;;;2.33;;
36725;SDS011;44936;52.086;5.150;2023-05-08T00:19:57;4.97;;;2.33;;
36725;SDS011;44936;52.086;5.150;2023-05-08T00:22:23;4.32;;;2.10;;
36725;SDS011;44936;52.086;5.150;2023-05-08T00:24:48;4.88;;;2.35;;
36725;SDS011;44936;52.086;5.150;2023-05-08T00:27:14;4.00;;;2.13;;
36725;SDS011;44936;52.086;5.150;2023-05-08T00:29:39;4.15;;;2.63;;
36725;SDS011;44936;52.086;5.150;2023-05-08T00:32:08;3.72;;;2.17;;
36725;SDS011;44936;52.086;5.150;2023-05-08T00:34:34;5.68;;;2.42;;
36725;SDS011;44936;52.086;5.150;2023-05-08T00:36:59;2.95;;;1.70;;
36725;SDS011;44936;52.086;5.150;2023-05-08T00:39:25;4.88;;;2.30;;
36725;SDS011;44936;52.086;5.150;2023-05-08T00:41:50;4.10;;;2.10;;
36725;SDS011;44936;52.086;5.150;2023-05-08T00:44:15;4.82;;;2.25;;
36725;SDS011;44936;52.086;5.150;2023-05-08T00:46:41;2.95;;;1.92;;
36725;SDS011;44936;52.086;5.150;2023-05-08T00:49:08;4.07;;;2.05;;
36725;SDS011;44936;52.086;5.150;2023-05-08T00:51:35;4.30;;;2.00;;
36725;SDS011;44936;52.086;5.150;2023-05-08T00:54:01;4.25;;;1.98;;
36725;SDS011;44936;52.086;5.150;2023-05-08T00:56:27;4.22;;;2.15;;
36725;SDS011;44936;52.086;5.150;2023-05-08T00:58:53;3.97;;;2.15;;
36725;SDS011;44936;52.086;5.150;2023-05-08T01:01:19;3.67;;;2.28;;
36725;SDS011;44936;52.086;5.150;2023-05-08T01:03:44;3.90;;;2.22;;
36725;SDS011;44936;52.086;5.150;2023-05-08T01:06:10;4.80;;;2.13;;
36725;SDS011;44936;52.086;5.150;2023-05-08T01:08:35;4.45;;;2.25;;
36725;SDS011;44936;52.086;5.150;2023-05-08T01:13:49;7.65;;;3.25;;
36725;SDS011;44936;52.086;5.150;2023-05-08T01:19:01;5.57;;;2.42;;
36725;SDS011;44936;52.086;5.150;2023-05-08T01:21:48;6.13;;;2.55;;
36725;SDS011;44936;52.086;5.150;2023-05-08T01:24:29;4.20;;;2.13;;
36725;SDS011;44936;52.086;5.150;2023-05-08T01:36:31;4.72;;;2.22;;
36725;SDS011;44936;52.086;5.150;2023-05-08T01:39:18;5.95;;;2.70;;
36725;SDS011;44936;52.086;5.150;2023-05-08T01:41:50;4.75;;;2.40;;
36725;SDS011;44936;52.086;5.150;2023-05-08T01:44:27;5.10;;;2.40;;
36725;SDS011;44936;52.086;5.150;2023-05-08T01:46:56;6.47;;;2.60;;
36725;SDS011;44936;52.086;5.150;2023-05-08T01:49:27;5.25;;;2.40;;
36725;SDS011;44936;52.086;5.150;2023-05-08T01:51:59;6.43;;;2.40;;
36725;SDS011;44936;52.086;5.150;2023-05-08T01:54:29;3.95;;;2.20;;
36725;SDS011;44936;52.086;5.150;2023-05-08T01:57:00;6.50;;;2.47;;
36725;SDS011;44936;52.086;5.150;2023-05-08T01:59:28;4.70;;;2.50;;
36725;SDS011;44936;52.086;5.150;2023-05-08T02:01:57;4.78;;;2.47;;
36725;SDS011;44936;52.086;5.150;2023-05-08T02:04:25;7.30;;;2.42;;
36725;SDS011;44936;52.086;5.150;2023-05-08T02:06:52;4.97;;;2.60;;
36725;SDS011;44936;52.086;5.150;2023-05-08T02:09:20;5.22;;;2.40;;
36725;SDS011;44936;52.086;5.150;2023-05-08T02:11:49;5.35;;;2.70;;
36725;SDS011;44936;52.086;5.150;2023-05-08T02:14:17;5.20;;;2.72;;
36725;SDS011;44936;52.086;5.150;2023-05-08T02:16:44;5.63;;;2.85;;
36725;SDS011;44936;52.086;5.150;2023-05-08T02:19:11;4.68;;;2.63;;
36725;SDS011;44936;52.086;5.150;2023-05-08T02:21:39;5.07;;;2.45;;
36725;SDS011;44936;52.086;5.150;2023-05-08T02:24:05;4.82;;;2.38;;
36725;SDS011;44936;52.086;5.150;2023-05-08T02:26:30;3.92;;;1.95;;
36725;SDS011;44936;52.086;5.150;2023-05-08T02:28:58;5.15;;;2.47;;
36725;SDS011;44936;52.086;5.150;2023-05-08T02:31:26;4.68;;;2.50;;
36725;SDS011;44936;52.086;5.150;2023-05-08T02:33:54;5.00;;;2.47;;
36725;SDS011;44936;52.086;5.150;2023-05-08T02:36:21;3.72;;;2.13;;
36725;SDS011;44936;52.086;5.150;2023-05-08T02:38:49;6.10;;;2.80;;
36725;SDS011;44936;52.086;5.150;2023-05-08T02:41:17;8.45;;;2.95;;
36725;SDS011;44936;52.086;5.150;2023-05-08T02:43:45;4.93;;;2.10;;
36725;SDS011;44936;52.086;5.150;2023-05-08T02:46:55;7.45;;;2.30;;
36725;SDS011;44936;52.086;5.150;2023-05-08T02:49:03;4.95;;;2.40;;
36725;SDS011;44936;52.086;5.150;2023-05-08T02:51:49;5.32;;;2.50;;
36725;SDS011;44936;52.086;5.150;2023-05-08T02:54:20;4.97;;;2.15;;
36725;SDS011;44936;52.086;5.150;2023-05-08T02:57:00;7.20;;;2.80;;
36725;SDS011;44936;52.086;5.150;2023-05-08T02:59:34;6.18;;;2.85;;
36725;SDS011;44936;52.086;5.150;2023-05-08T03:04:31;3.23;;;1.93;;
36725;SDS011;44936;52.086;5.150;2023-05-08T03:07:00;5.40;;;2.40;;
36725;SDS011;44936;52.086;5.150;2023-05-08T03:09:27;6.38;;;2.38;;
36725;SDS011;44936;52.086;5.150;2023-05-08T03:12:02;7.97;;;2.60;;
36725;SDS011;44936;52.086;5.150;2023-05-08T03:14:34;5.63;;;3.00;;
36725;SDS011;44936;52.086;5.150;2023-05-08T03:17:03;6.07;;;2.50;;
36725;SDS011;44936;52.086;5.150;2023-05-08T03:19:33;4.65;;;2.42;;
36725;SDS011;44936;52.086;5.150;2023-05-08T03:22:01;5.28;;;2.60;;
36725;SDS011;44936;52.086;5.150;2023-05-08T03:24:28;5.50;;;2.13;;
36725;SDS011;44936;52.086;5.150;2023-05-08T03:26:55;6.72;;;2.78;;
36725;SDS011;44936;52.086;5.150;2023-05-08T03:29:23;6.85;;;2.65;;
36725;SDS011;44936;52.086;5.150;2023-05-08T03:31:50;4.68;;;2.58;;
36725;SDS011;44936;52.086;5.150;2023-05-08T03:34:16;5.28;;;2.55;;
36725;SDS011;44936;52.086;5.150;2023-05-08T03:36:43;4.97;;;2.50;;
36725;SDS011;44936;52.086;5.150;2023-05-08T03:39:09;5.22;;;2.22;;
36725;SDS011;44936;52.086;5.150;2023-05-08T03:41:38;4.68;;;2.45;;
36725;SDS011;44936;52.086;5.150;2023-05-08T03:44:03;5.22;;;2.50;;
36725;SDS011;44936;52.086;5.150;2023-05-08T03:46:30;5.38;;;2.45;;
36725;SDS011;44936;52.086;5.150;2023-05-08T03:48:57;7.78;;;2.90;;
36725;SDS011;44936;52.086;5.150;2023-05-08T03:51:24;5.90;;;3.05;;
36725;SDS011;44936;52.086;5.150;2023-05-08T03:53:51;5.03;;;2.40;;
36725;SDS011;44936;52.086;5.150;2023-05-08T03:56:17;5.47;;;2.80;;
36725;SDS011;44936;52.086;5.150;2023-05-08T04:04:13;5.00;;;2.65;;
36725;SDS011;44936;52.086;5.150;2023-05-08T04:09:42;5.55;;;2.30;;
36725;SDS011;44936;52.086;5.150;2023-05-08T04:14:55;3.88;;;2.15;;
36725;SDS011;44936;52.086;5.150;2023-05-08T04:17:48;4.25;;;2.28;;
36725;SDS011;44936;52.086;5.150;2023-05-08T04:20:18;5.95;;;2.60;;
36725;SDS011;44936;52.086;5.150;2023-05-08T04:22:46;5.32;;;2.80;;
36725;SDS011;44936;52.086;5.150;2023-05-08T04:25:15;3.65;;;2.20;;
36725;SDS011;44936;52.086;5.150;2023-05-08T04:27:43;5.88;;;2.70;;
36725;SDS011;44936;52.086;5.150;2023-05-08T04:30:09;5.20;;;2.70;;
36725;SDS011;44936;52.086;5.150;2023-05-08T04:32:38;5.53;;;2.38;;
36725;SDS011;44936;52.086;5.150;2023-05-08T04:35:05;6.45;;;2.67;;
36725;SDS011;44936;52.086;5.150;2023-05-08T04:37:31;5.15;;;2.47;;
36725;SDS011;44936;52.086;5.150;2023-05-08T04:39:57;4.47;;;2.40;;
36725;SDS011;44936;52.086;5.150;2023-05-08T04:42:23;3.67;;;2.22;;
36725;SDS011;44936;52.086;5.150;2023-05-08T04:44:50;6.97;;;2.90;;
36725;SDS011;44936;52.086;5.150;2023-05-08T04:47:15;6.22;;;2.80;;
36725;SDS011;44936;52.086;5.150;2023-05-08T04:49:41;5.30;;;2.22;;
36725;SDS011;44936;52.086;5.150;2023-05-08T04:52:06;7.90;;;3.05;;
36725;SDS011;44936;52.086;5.150;2023-05-08T04:54:32;4.82;;;2.40;;
36725;SDS011;44936;52.086;5.150;2023-05-08T04:56:58;8.23;;;2.80;;
36725;SDS011;44936;52.086;5.150;2023-05-08T04:59:23;8.20;;;3.47;;
36725;SDS011;44936;52.086;5.150;2023-05-08T05:01:51;9.48;;;2.83;;
36725;SDS011;44936;52.086;5.150;2023-05-08T05:04:17;7.07;;;3.25;;
36725;SDS011;44936;52.086;5.150;2023-05-08T05:06:42;7.90;;;3.15;;
36725;SDS011;44936;52.086;5.150;2023-05-08T05:09:08;7.93;;;2.90;;
36725;SDS011;44936;52.086;5.150;2023-05-08T05:11:34;6.97;;;2.90;;
36725;SDS011;44936;52.086;5.150;2023-05-08T05:13:59;6.47;;;2.95;;
36725;SDS011;44936;52.086;5.150;2023-05-08T05:16:25;5.82;;;2.63;;
36725;SDS011;44936;52.086;5.150;2023-05-08T05:18:51;6.70;;;2.65;;
36725;SDS011;44936;52.086;5.150;2023-05-08T05:21:17;8.50;;;3.45;;
36725;SDS011;44936;52.086;5.150;2023-05-08T05:23:42;7.13;;;2.75;;
36725;SDS011;44936;52.086;5.150;2023-05-08T05:26:08;9.57;;;3.45;;
36725;SDS011;44936;52.086;5.150;2023-05-08T05:28:33;6.93;;;3.58;;
36725;SDS011;44936;52.086;5.150;2023-05-08T05:30:58;6.57;;;2.80;;
36725;SDS011;44936;52.086;5.150;2023-05-08T05:33:24;7.88;;;3.30;;
36725;SDS011;44936;52.086;5.150;2023-05-08T05:35:49;6.88;;;3.25;;
36725;SDS011;44936;52.086;5.150;2023-05-08T05:38:15;10.00;;;3.22;;
36725;SDS011;44936;52.086;5.150;2023-05-08T05:40:40;6.95;;;3.13;;
36725;SDS011;44936;52.086;5.150;2023-05-08T05:43:05;8.57;;;3.47;;
36725;SDS011;44936;52.086;5.150;2023-05-08T05:45:31;9.07;;;3.25;;
36725;SDS011;44936;52.086;5.150;2023-05-08T05:47:56;8.93;;;3.30;;
36725;SDS011;44936;52.086;5.150;2023-05-08T05:50:21;7.65;;;3.13;;
36725;SDS011;44936;52.086;5.150;2023-05-08T05:52:47;8.60;;;4.03;;
36725;SDS011;44936;52.086;5.150;2023-05-08T05:55:12;10.43;;;3.58;;
36725;SDS011;44936;52.086;5.150;2023-05-08T05:57:38;9.18;;;3.78;;
36725;SDS011;44936;52.086;5.150;2023-05-08T06:00:03;8.25;;;3.45;;
36725;SDS011;44936;52.086;5.150;2023-05-08T06:02:31;8.60;;;3.55;;
36725;SDS011;44936;52.086;5.150;2023-05-08T06:04:59;8.98;;;3.00;;
36725;SDS011;44936;52.086;5.150;2023-05-08T06:07:24;9.90;;;3.40;;
36725;SDS011;44936;52.086;5.150;2023-05-08T06:09:50;11.25;;;4.07;;
36725;SDS011;44936;52.086;5.150;2023-05-08T06:12:17;8.40;;;3.50;;
36725;SDS011;44936;52.086;5.150;2023-05-08T06:14:42;10.95;;;3.75;;
36725;SDS011;44936;52.086;5.150;2023-05-08T06:17:08;9.25;;;3.15;;
36725;SDS011;44936;52.086;5.150;2023-05-08T06:19:33;9.05;;;3.35;;
36725;SDS011;44936;52.086;5.150;2023-05-08T06:21:58;11.90;;;3.55;;
36725;SDS011;44936;52.086;5.150;2023-05-08T06:24:24;11.95;;;3.78;;
36725;SDS011;44936;52.086;5.150;2023-05-08T06:26:49;10.95;;;3.50;;
36725;SDS011;44936;52.086;5.150;2023-05-08T06:29:14;11.10;;;3.35;;
36725;SDS011;44936;52.086;5.150;2023-05-08T06:31:40;8.50;;;3.75;;
36725;SDS011;44936;52.086;5.150;2023-05-08T06:34:05;13.20;;;3.85;;
36725;SDS011;44936;52.086;5.150;2023-05-08T06:36:31;13.32;;;3.83;;
36725;SDS011;44936;52.086;5.150;2023-05-08T06:38:56;14.77;;;4.63;;
36725;SDS011;44936;52.086;5.150;2023-05-08T06:41:21;13.07;;;4.00;;
36725;SDS011;44936;52.086;5.150;2023-05-08T06:43:47;14.32;;;4.40;;
36725;SDS011;44936;52.086;5.150;2023-05-08T06:46:12;13.63;;;4.93;;
36725;SDS011;44936;52.086;5.150;2023-05-08T06:48:38;15.60;;;5.00;;
36725;SDS011;44936;52.086;5.150;2023-05-08T06:51:03;19.48;;;5.45;;
36725;SDS011;44936;52.086;5.150;2023-05-08T06:53:29;16.10;;;4.60;;
36725;SDS011;44936;52.086;5.150;2023-05-08T06:55:54;13.55;;;4.60;;
36725;SDS011;44936;52.086;5.150;2023-05-08T06:58:21;13.52;;;4.50;;
36725;SDS011;44936;52.086;5.150;2023-05-08T07:00:47;13.88;;;4.95;;
36725;SDS011;44936;52.086;5.150;2023-05-08T07:03:12;14.27;;;4.88;;
36725;SDS011;44936;52.086;5.150;2023-05-08T07:05:37;13.88;;;5.40;;
36725;SDS011;44936;52.086;5.150;2023-05-08T07:08:03;18.08;;;5.00;;
36725;SDS011;44936;52.086;5.150;2023-05-08T07:10:28;16.10;;;5.32;;
36725;SDS011;44936;52.086;5.150;2023-05-08T07:12:54;12.15;;;4.18;;
36725;SDS011;44936;52.086;5.150;2023-05-08T07:15:20;17.42;;;5.32;;
36725;SDS011;44936;52.086;5.150;2023-05-08T07:17:46;12.32;;;4.32;;
36725;SDS011;44936;52.086;5.150;2023-05-08T07:20:11;15.50;;;5.15;;
36725;SDS011;44936;52.086;5.150;2023-05-08T07:22:37;14.70;;;5.32;;
36725;SDS011;44936;52.086;5.150;2023-05-08T07:25:02;13.18;;;4.40;;
36725;SDS011;44936;52.086;5.150;2023-05-08T07:27:29;18.35;;;5.75;;
36725;SDS011;44936;52.086;5.150;2023-05-08T07:29:55;14.40;;;4.80;;
36725;SDS011;44936;52.086;5.150;2023-05-08T07:32:22;19.20;;;6.00;;
36725;SDS011;44936;52.086;5.150;2023-05-08T07:34:47;18.85;;;5.90;;
36725;SDS011;44936;52.086;5.150;2023-05-08T07:37:13;14.57;;;5.20;;
36725;SDS011;44936;52.086;5.150;2023-05-08T07:39:38;17.13;;;5.70;;
36725;SDS011;44936;52.086;5.150;2023-05-08T07:42:03;15.27;;;4.97;;
36725;SDS011;44936;52.086;5.150;2023-05-08T07:44:30;22.45;;;6.50;;
36725;SDS011;44936;52.086;5.150;2023-05-08T07:46:57;20.60;;;5.80;;
36725;SDS011;44936;52.086;5.150;2023-05-08T07:49:22;16.52;;;6.22;;
36725;SDS011;44936;52.086;5.150;2023-05-08T07:51:47;19.95;;;6.43;;
36725;SDS011;44936;52.086;5.150;2023-05-08T07:54:13;17.60;;;5.55;;
36725;SDS011;44936;52.086;5.150;2023-05-08T07:56:38;20.88;;;6.40;;
36725;SDS011;44936;52.086;5.150;2023-05-08T07:59:03;17.58;;;5.50;;
36725;SDS011;44936;52.086;5.150;2023-05-08T08:01:29;16.17;;;6.20;;
36725;SDS011;44936;52.086;5.150;2023-05-08T08:03:54;19.10;;;5.63;;
36725;SDS011;44936;52.086;5.150;2023-05-08T08:06:19;15.15;;;5.20;;
36725;SDS011;44936;52.086;5.150;2023-05-08T08:08:45;28.75;;;7.47;;
36725;SDS011;44936;52.086;5.150;2023-05-08T08:11:10;18.80;;;6.45;;
36725;SDS011;44936;52.086;5.150;2023-05-08T08:13:35;19.95;;;6.30;;
36725;SDS011;44936;52.086;5.150;2023-05-08T08:16:00;22.65;;;7.45;;
36725;SDS011;44936;52.086;5.150;2023-05-08T08:18:28;16.80;;;5.50;;
36725;SDS011;44936;52.086;5.150;2023-05-08T08:20:53;21.58;;;6.88;;
36725;SDS011;44936;52.086;5.150;2023-05-08T08:23:19;21.52;;;6.28;;
36725;SDS011;44936;52.086;5.150;2023-05-08T08:25:44;23.15;;;6.90;;
36725;SDS011;44936;52.086;5.150;2023-05-08T08:28:09;23.17;;;6.50;;
36725;SDS011;44936;52.086;5.150;2023-05-08T08:30:36;25.35;;;7.25;;
36725;SDS011;44936;52.086;5.150;2023-05-08T08:33:02;24.27;;;6.70;;
36725;SDS011;44936;52.086;5.150;2023-05-08T08:35:27;19.50;;;5.60;;
36725;SDS011;44936;52.086;5.150;2023-05-08T08:37:54;23.50;;;6.88;;
36725;SDS011;44936;52.086;5.150;2023-05-08T08:40:20;27.63;;;6.57;;
36725;SDS011;44936;52.086;5.150;2023-05-08T08:42:46;23.38;;;6.25;;
36725;SDS011;44936;52.086;5.150;2023-05-08T08:45:11;23.55;;;7.00;;
36725;SDS011;44936;52.086;5.150;2023-05-08T08:47:37;18.92;;;5.80;;
36725;SDS011;44936;52.086;5.150;2023-05-08T08:50:07;21.77;;;6.85;;
36725;SDS011;44936;52.086;5.150;2023-05-08T08:52:38;25.15;;;7.10;;
36725;SDS011;44936;52.086;5.150;2023-05-08T08:55:06;19.63;;;5.75;;
36725;SDS011;44936;52.086;5.150;2023-05-08T08:57:36;25.45;;;6.65;;
36725;SDS011;44936;52.086;5.150;2023-05-08T09:00:08;27.02;;;7.57;;
36725;SDS011;44936;52.086;5.150;2023-05-08T09:02:36;29.73;;;7.25;;
36725;SDS011;44936;52.086;5.150;2023-05-08T09:05:01;28.30;;;8.63;;
36725;SDS011;44936;52.086;5.150;2023-05-08T09:07:27;31.15;;;8.80;;
36725;SDS011;44936;52.086;5.150;2023-05-08T09:09:54;32.65;;;9.23;;
36725;SDS011;44936;52.086;5.150;2023-05-08T09:12:20;33.50;;;9.07;;
36725;SDS011;44936;52.086;5.150;2023-05-08T09:14:45;27.50;;;8.02;;
36725;SDS011;44936;52.086;5.150;2023-05-08T09:17:10;38.90;;;11.35;;
36725;SDS011;44936;52.086;5.150;2023-05-08T09:19:36;33.83;;;10.38;;
36725;SDS011;44936;52.086;5.150;2023-05-08T09:22:02;28.63;;;8.10;;
36725;SDS011;44936;52.086;5.150;2023-05-08T09:27:25;37.47;;;8.93;;
36725;SDS011;44936;52.086;5.150;2023-05-08T09:30:02;29.10;;;8.88;;
36725;SDS011;44936;52.086;5.150;2023-05-08T09:32:39;32.05;;;9.38;;
36725;SDS011;44936;52.086;5.150;2023-05-08T09:35:06;33.10;;;9.10;;
36725;SDS011;44936;52.086;5.150;2023-05-08T09:37:32;30.08;;;9.10;;
36725;SDS011;44936;52.086;5.150;2023-05-08T09:40:13;35.20;;;9.73;;
36725;SDS011;44936;52.086;5.150;2023-05-08T09:42:43;36.73;;;10.27;;
36725;SDS011;44936;52.086;5.150;2023-05-08T09:45:09;38.47;;;9.60;;
36725;SDS011;44936;52.086;5.150;2023-05-08T09:47:35;31.10;;;10.15;;
36725;SDS011;44936;52.086;5.150;2023-05-08T09:50:07;33.20;;;9.90;;
36725;SDS011;44936;52.086;5.150;2023-05-08T09:52:35;39.97;;;11.77;;
36725;SDS011;44936;52.086;5.150;2023-05-08T09:57:32;39.70;;;8.88;;
36725;SDS011;44936;52.086;5.150;2023-05-08T10:00:08;36.83;;;10.88;;
36725;SDS011;44936;52.086;5.150;2023-05-08T10:02:35;35.10;;;10.23;;
36725;SDS011;44936;52.086;5.150;2023-05-08T10:05:02;40.50;;;10.27;;
36725;SDS011;44936;52.086;5.150;2023-05-08T10:07:30;34.35;;;9.65;;
36725;SDS011;44936;52.086;5.150;2023-05-08T10:09:57;43.95;;;12.52;;
36725;SDS011;44936;52.086;5.150;2023-05-08T10:12:30;34.55;;;9.27;;
36725;SDS011;44936;52.086;5.150;2023-05-08T10:14:56;38.65;;;10.48;;
36725;SDS011;44936;52.086;5.150;2023-05-08T10:17:26;36.60;;;10.27;;
36725;SDS011;44936;52.086;5.150;2023-05-08T10:20:02;30.55;;;8.70;;
36725;SDS011;44936;52.086;5.150;2023-05-08T10:22:31;26.60;;;8.55;;
36725;SDS011;44936;52.086;5.150;2023-05-08T10:25:00;29.30;;;8.60;;
36725;SDS011;44936;52.086;5.150;2023-05-08T10:27:34;30.60;;;9.38;;
36725;SDS011;44936;52.086;5.150;2023-05-08T10:30:05;36.50;;;10.38;;
36725;SDS011;44936;52.086;5.150;2023-05-08T10:32:37;28.33;;;9.57;;
36725;SDS011;44936;52.086;5.150;2023-05-08T10:35:07;36.25;;;9.90;;
36725;SDS011;44936;52.086;5.150;2023-05-08T10:37:34;33.10;;;9.88;;
36725;SDS011;44936;52.086;5.150;2023-05-08T10:40:01;37.55;;;10.77;;
36725;SDS011;44936;52.086;5.150;2023-05-08T10:42:28;30.55;;;9.48;;
36725;SDS011;44936;52.086;5.150;2023-05-08T10:44:53;34.55;;;10.70;;
36725;SDS011;44936;52.086;5.150;2023-05-08T10:48:03;30.88;;;10.52;;
36725;SDS011;44936;52.086;5.150;2023-05-08T10:55:27;24.70;;;7.78;;
36725;SDS011;44936;52.086;5.150;2023-05-08T10:58:01;26.23;;;7.78;;
36725;SDS011;44936;52.086;5.150;2023-05-08T11:03:17;38.25;;;10.73;;
36725;SDS011;44936;52.086;5.150;2023-05-08T11:05:46;47.20;;;12.35;;
36725;SDS011;44936;52.086;5.150;2023-05-08T11:08:17;30.58;;;10.07;;
36725;SDS011;44936;52.086;5.150;2023-05-08T11:10:43;38.10;;;12.00;;
36725;SDS011;44936;52.086;5.150;2023-05-08T11:13:18;34.33;;;10.27;;
36725;SDS011;44936;52.086;5.150;2023-05-08T11:15:51;31.55;;;9.23;;
36725;SDS011;44936;52.086;5.150;2023-05-08T11:18:16;37.08;;;11.00;;
36725;SDS011;44936;52.086;5.150;2023-05-08T11:20:53;35.17;;;10.63;;
36725;SDS011;44936;52.086;5.150;2023-05-08T11:23:25;30.00;;;9.23;;
36725;SDS011;44936;52.086;5.150;2023-05-08T11:25:58;36.45;;;10.23;;
36725;SDS011;44936;52.086;5.150;2023-05-08T11:28:25;30.00;;;8.82;;
36725;SDS011;44936;52.086;5.150;2023-05-08T11:30:54;33.28;;;10.88;;
36725;SDS011;44936;52.086;5.150;2023-05-08T11:33:25;39.15;;;11.13;;
36725;SDS011;44936;52.086;5.150;2023-05-08T11:35:55;28.87;;;9.37;;
36725;SDS011;44936;52.086;5.150;2023-05-08T11:38:22;32.22;;;9.48;;
36725;SDS011;44936;52.086;5.150;2023-05-08T11:46:04;35.40;;;9.88;;
36725;SDS011;44936;52.086;5.150;2023-05-08T11:48:34;33.17;;;8.65;;
36725;SDS011;44936;52.086;5.150;2023-05-08T11:51:00;34.30;;;9.85;;
36725;SDS011;44936;52.086;5.150;2023-05-08T11:53:27;25.60;;;8.93;;
36725;SDS011;44936;52.086;5.150;2023-05-08T11:55:54;23.23;;;8.20;;
36725;SDS011;44936;52.086;5.150;2023-05-08T11:58:19;25.83;;;8.68;;
36725;SDS011;44936;52.086;5.150;2023-05-08T12:00:45;29.55;;;8.95;;
36725;SDS011;44936;52.086;5.150;2023-05-08T12:03:12;30.27;;;8.82;;
36725;SDS011;44936;52.086;5.150;2023-05-08T12:05:39;21.42;;;8.70;;
36725;SDS011;44936;52.086;5.150;2023-05-08T12:08:05;24.75;;;7.78;;
36725;SDS011;44936;52.086;5.150;2023-05-08T12:10:31;27.35;;;7.78;;
36725;SDS011;44936;52.086;5.150;2023-05-08T12:12:57;25.70;;;7.47;;
36725;SDS011;44936;52.086;5.150;2023-05-08T12:15:22;17.58;;;7.07;;
36725;SDS011;44936;52.086;5.150;2023-05-08T12:17:48;21.60;;;6.68;;
36725;SDS011;44936;52.086;5.150;2023-05-08T12:20:24;21.08;;;5.97;;
36725;SDS011;44936;52.086;5.150;2023-05-08T12:22:50;18.15;;;6.25;;
36725;SDS011;44936;52.086;5.150;2023-05-08T12:25:17;22.90;;;6.65;;
36725;SDS011;44936;52.086;5.150;2023-05-08T12:27:43;26.17;;;7.03;;
36725;SDS011;44936;52.086;5.150;2023-05-08T12:30:10;22.42;;;7.25;;
36725;SDS011;44936;52.086;5.150;2023-05-08T12:32:38;23.25;;;8.32;;
36725;SDS011;44936;52.086;5.150;2023-05-08T12:35:06;23.30;;;6.82;;
36725;SDS011;44936;52.086;5.150;2023-05-08T12:37:33;25.75;;;7.18;;
36725;SDS011;44936;52.086;5.150;2023-05-08T12:39:58;21.13;;;6.55;;
36725;SDS011;44936;52.086;5.150;2023-05-08T12:45:08;23.77;;;7.18;;
36725;SDS011;44936;52.086;5.150;2023-05-08T12:47:40;19.52;;;6.50;;
36725;SDS011;44936;52.086;5.150;2023-05-08T12:50:10;18.65;;;6.13;;
36725;SDS011;44936;52.086;5.150;2023-05-08T12:52:37;16.35;;;5.78;;
36725;SDS011;44936;52.086;5.150;2023-05-08T12:55:03;15.73;;;5.57;;
36725;SDS011;44936;52.086;5.150;2023-05-08T12:57:28;18.40;;;5.60;;
36725;SDS011;44936;52.086;5.150;2023-05-08T13:00:01;17.02;;;5.75;;
36725;SDS011;44936;52.086;5.150;2023-05-08T13:02:29;16.75;;;5.15;;
36725;SDS011;44936;52.086;5.150;2023-05-08T13:04:54;16.77;;;5.10;;
36725;SDS011;44936;52.086;5.150;2023-05-08T13:07:20;13.25;;;4.63;;
36725;SDS011;44936;52.086;5.150;2023-05-08T13:09:58;14.82;;;5.00;;
36725;SDS011;44936;52.086;5.150;2023-05-08T13:12:28;13.32;;;4.53;;
36725;SDS011;44936;52.086;5.150;2023-05-08T13:14:54;18.38;;;5.70;;
36725;SDS011;44936;52.086;5.150;2023-05-08T13:17:20;18.77;;;5.88;;
36725;SDS011;44936;52.086;5.150;2023-05-08T13:19:45;24.45;;;6.78;;
36725;SDS011;44936;52.086;5.150;2023-05-08T13:22:12;21.40;;;5.43;;
36725;SDS011;44936;52.086;5.150;2023-05-08T13:24:37;16.85;;;5.15;;
36725;SDS011;44936;52.086;5.150;2023-05-08T13:27:02;17.70;;;5.97;;
36725;SDS011;44936;52.086;5.150;2023-05-08T13:29:28;16.85;;;4.82;;
36725;SDS011;44936;52.086;5.150;2023-05-08T13:31:53;14.27;;;4.75;;
36725;SDS011;44936;52.086;5.150;2023-05-08T13:34:18;13.48;;;4.53;;
36725;SDS011;44936;52.086;5.150;2023-05-08T13:36:44;15.13;;;4.70;;
36725;SDS011;44936;52.086;5.150;2023-05-08T13:39:09;15.50;;;4.57;;
36725;SDS011;44936;52.086;5.150;2023-05-08T13:41:35;15.23;;;5.50;;
36725;SDS011;44936;52.086;5.150;2023-05-08T13:44:00;12.40;;;5.03;;
36725;SDS011;44936;52.086;5.150;2023-05-08T13:46:25;12.75;;;4.75;;
36725;SDS011;44936;52.086;5.150;2023-05-08T13:48:50;23.17;;;6.25;;
36725;SDS011;44936;52.086;5.150;2023-05-08T13:51:16;18.45;;;5.47;;
36725;SDS011;44936;52.086;5.150;2023-05-08T13:53:41;21.45;;;5.82;;
36725;SDS011;44936;52.086;5.150;2023-05-08T13:56:06;15.30;;;5.63;;
36725;SDS011;44936;52.086;5.150;2023-05-08T13:58:32;13.57;;;4.75;;
36725;SDS011;44936;52.086;5.150;2023-05-08T14:00:57;12.70;;;5.30;;
36725;SDS011;44936;52.086;5.150;2023-05-08T14:03:22;15.10;;;5.13;;
36725;SDS011;44936;52.086;5.150;2023-05-08T14:05:48;18.77;;;5.60;;
36725;SDS011;44936;52.086;5.150;2023-05-08T14:08:13;17.05;;;5.25;;
36725;SDS011;44936;52.086;5.150;2023-05-08T14:10:38;11.98;;;4.50;;
36725;SDS011;44936;52.086;5.150;2023-05-08T14:13:04;17.30;;;5.72;;
36725;SDS011;44936;52.086;5.150;2023-05-08T14:15:30;16.42;;;5.28;;
36725;SDS011;44936;52.086;5.150;2023-05-08T14:17:55;15.88;;;5.63;;
36725;SDS011;44936;52.086;5.150;2023-05-08T14:20:20;14.90;;;5.22;;
36725;SDS011;44936;52.086;5.150;2023-05-08T14:22:46;15.35;;;5.25;;
36725;SDS011;44936;52.086;5.150;2023-05-08T14:25:11;20.50;;;5.80;;
36725;SDS011;44936;52.086;5.150;2023-05-08T14:27:37;14.00;;;4.63;;
36725;SDS011;44936;52.086;5.150;2023-05-08T14:30:02;19.38;;;5.55;;
36725;SDS011;44936;52.086;5.150;2023-05-08T14:32:28;17.23;;;5.20;;
36725;SDS011;44936;52.086;5.150;2023-05-08T14:34:54;14.60;;;5.82;;
36725;SDS011;44936;52.086;5.150;2023-05-08T14:37:19;13.35;;;4.85;;
36725;SDS011;44936;52.086;5.150;2023-05-08T14:39:44;15.52;;;5.93;;
36725;SDS011;44936;52.086;5.150;2023-05-08T14:42:10;18.30;;;5.88;;
36725;SDS011;44936;52.086;5.150;2023-05-08T14:44:36;15.23;;;5.32;;
36725;SDS011;44936;52.086;5.150;2023-05-08T14:47:01;16.63;;;6.07;;
36725;SDS011;44936;52.086;5.150;2023-05-08T14:49:26;12.27;;;5.40;;
36725;SDS011;44936;52.086;5.150;2023-05-08T14:51:52;17.60;;;4.97;;
36725;SDS011;44936;52.086;5.150;2023-05-08T14:54:17;17.27;;;6.32;;
36725;SDS011;44936;52.086;5.150;2023-05-08T14:56:43;13.75;;;4.72;;
36725;SDS011;44936;52.086;5.150;2023-05-08T14:59:08;14.25;;;4.70;;
36725;SDS011;44936;52.086;5.150;2023-05-08T15:01:33;16.30;;;5.38;;
36725;SDS011;44936;52.086;5.150;2023-05-08T15:03:59;14.40;;;5.47;;
36725;SDS011;44936;52.086;5.150;2023-05-08T15:06:24;13.05;;;5.03;;
36725;SDS011;44936;52.086;5.150;2023-05-08T15:08:51;16.35;;;5.18;;
36725;SDS011;44936;52.086;5.150;2023-05-08T15:11:16;20.15;;;6.07;;
36725;SDS011;44936;52.086;5.150;2023-05-08T15:13:42;13.35;;;4.75;;
36725;SDS011;44936;52.086;5.150;2023-05-08T15:16:07;17.27;;;5.65;;
36725;SDS011;44936;52.086;5.150;2023-05-08T15:18:33;17.48;;;6.22;;
36725;SDS011;44936;52.086;5.150;2023-05-08T15:20:58;19.38;;;6.75;;
36725;SDS011;44936;52.086;5.150;2023-05-08T15:23:24;20.88;;;6.38;;
36725;SDS011;44936;52.086;5.150;2023-05-08T15:25:51;21.42;;;6.53;;
36725;SDS011;44936;52.086;5.150;2023-05-08T15:28:16;19.85;;;6.15;;